Terminal Aerodrome Forecast
Issued by NWS

Home | Current Version | Previous Version | Text Only | Print | Product List | Glossary On
Versions: 1 2 3 4 5 6 7 8 9 10 11 12 13 14 15 16 17
000
FTUS41 KCAR 042329
TAFFVE
TAF
KFVE 042329Z 0500/0524 VRB02KT P6SM BKN040
     FM050430 10004KT P6SM VCSH OVC030
     FM051200 07007KT P6SM BKN035
     FM051700 07007KT P6SM BKN040=

USA.gov is the U.S. government's official web portal to all federal, state and local government web resources and services.